createdAt,value
2022-12-31T00:00:09.005Z,11.57
2022-12-31T00:02:36.183Z,11.57
2022-12-31T00:05:04.501Z,11.53
2022-12-31T00:09:57.938Z,11.59
2022-12-31T00:12:25.567Z,11.64
2022-12-31T00:14:52.390Z,11.60
2022-12-31T00:17:19.134Z,11.63
2022-12-31T00:19:46.139Z,11.59
2022-12-31T00:22:12.731Z,11.57
2022-12-31T00:24:39.351Z,11.56
2022-12-31T00:27:06.702Z,11.58
2022-12-31T00:29:33.260Z,11.63
2022-12-31T00:32:00.211Z,11.66
2022-12-31T00:34:26.799Z,11.66
2022-12-31T00:36:53.605Z,11.69
2022-12-31T00:39:20.361Z,11.65
2022-12-31T00:41:47.000Z,11.62
2022-12-31T00:44:14.338Z,11.59
2022-12-31T00:49:07.055Z,11.65
2022-12-31T00:51:33.835Z,11.71
2022-12-31T00:54:00.982Z,11.66
2022-12-31T00:56:30.103Z,11.66
2022-12-31T00:58:58.249Z,11.60
2022-12-31T01:01:30.683Z,11.63
2022-12-31T01:04:05.171Z,11.60
2022-12-31T01:06:32.247Z,11.52
2022-12-31T01:08:59.555Z,11.48
2022-12-31T01:11:29.446Z,11.50
2022-12-31T01:14:02.041Z,11.52
2022-12-31T01:16:50.630Z,11.54
2022-12-31T01:19:27.236Z,11.55
2022-12-31T01:21:54.475Z,11.55
2022-12-31T01:24:21.541Z,11.58
2022-12-31T01:26:49.303Z,11.57
2022-12-31T01:29:16.990Z,11.57
2022-12-31T01:31:43.822Z,11.67
2022-12-31T01:34:10.628Z,11.70
2022-12-31T01:36:38.689Z,11.72
2022-12-31T01:39:07.539Z,11.70
2022-12-31T01:41:39.078Z,11.84
2022-12-31T01:44:11.343Z,11.96
2022-12-31T01:46:50.041Z,12.04
2022-12-31T01:49:30.089Z,12.04
2022-12-31T01:52:07.416Z,12.04
2022-12-31T01:54:39.666Z,12.11
2022-12-31T01:57:07.907Z,12.15
2022-12-31T01:59:34.611Z,12.16
2022-12-31T02:02:01.887Z,12.25
2022-12-31T02:04:29.279Z,12.27
2022-12-31T02:07:00.381Z,12.27
2022-12-31T02:09:27.192Z,12.28
2022-12-31T02:11:53.953Z,12.32
2022-12-31T02:14:25.662Z,12.38
2022-12-31T02:17:01.348Z,12.47
2022-12-31T02:19:42.980Z,12.51
2022-12-31T02:22:25.432Z,12.46
2022-12-31T02:24:58.412Z,12.47
2022-12-31T02:28:02.415Z,12.50
2022-12-31T02:30:32.525Z,12.61
2022-12-31T02:33:23.072Z,12.61
2022-12-31T02:35:59.826Z,12.62
2022-12-31T02:38:41.805Z,12.69
2022-12-31T02:41:33.299Z,12.63
2022-12-31T02:43:59.923Z,12.65
2022-12-31T02:46:44.278Z,12.65
2022-12-31T02:49:16.137Z,12.66
2022-12-31T02:52:01.598Z,12.74
2022-12-31T02:54:44.114Z,12.71
2022-12-31T02:57:21.353Z,12.73
2022-12-31T03:00:16.197Z,12.73
2022-12-31T03:02:46.402Z,12.74
2022-12-31T03:05:14.435Z,12.70
2022-12-31T03:07:42.000Z,12.70
2022-12-31T03:10:09.661Z,12.69
2022-12-31T03:12:48.913Z,12.71
2022-12-31T03:15:27.238Z,12.81
2022-12-31T03:18:12.071Z,12.79
2022-12-31T03:21:03.082Z,12.74
2022-12-31T03:23:35.391Z,12.69
2022-12-31T03:26:04.047Z,12.61
2022-12-31T03:28:31.025Z,12.64
2022-12-31T03:31:01.392Z,12.65
2022-12-31T03:33:33.619Z,12.67
2022-12-31T03:36:04.615Z,12.71
2022-12-31T03:38:31.288Z,12.65
2022-12-31T03:40:57.892Z,12.69
2022-12-31T03:43:25.455Z,12.69
2022-12-31T03:45:53.460Z,12.76
2022-12-31T03:48:22.725Z,12.76
2022-12-31T03:50:49.854Z,12.76
2022-12-31T03:53:17.301Z,12.91
2022-12-31T03:55:43.948Z,12.87
2022-12-31T03:58:10.552Z,12.90
2022-12-31T04:00:37.123Z,12.97
2022-12-31T04:03:03.812Z,12.97
2022-12-31T04:05:30.421Z,12.96
2022-12-31T04:07:57.002Z,12.86
2022-12-31T04:10:23.631Z,12.78
2022-12-31T04:12:50.254Z,12.88
2022-12-31T04:15:19.772Z,12.94
2022-12-31T04:17:47.164Z,12.95
2022-12-31T04:20:14.889Z,12.88
2022-12-31T04:22:41.880Z,12.92
2022-12-31T04:25:12.959Z,12.98
2022-12-31T04:27:41.389Z,12.93
2022-12-31T04:30:10.277Z,12.96
2022-12-31T04:32:36.901Z,13.08
2022-12-31T04:35:03.736Z,13.05
2022-12-31T04:37:30.526Z,13.03
2022-12-31T04:40:03.515Z,13.02
2022-12-31T04:42:32.307Z,13.05
2022-12-31T04:44:58.908Z,13.06
2022-12-31T04:47:25.498Z,13.16
2022-12-31T04:49:52.081Z,13.20
2022-12-31T04:52:18.671Z,13.15
2022-12-31T04:54:45.211Z,13.10
2022-12-31T04:57:11.780Z,13.18
2022-12-31T04:59:39.666Z,13.16
2022-12-31T05:02:06.536Z,13.21
2022-12-31T05:04:33.393Z,13.20
2022-12-31T05:06:59.977Z,13.24
2022-12-31T05:09:28.322Z,13.31
2022-12-31T05:11:55.247Z,13.31
2022-12-31T05:14:21.924Z,13.29
2022-12-31T05:16:48.532Z,13.24
2022-12-31T05:19:15.399Z,13.27
2022-12-31T05:21:41.976Z,13.36
2022-12-31T05:24:08.637Z,13.36
2022-12-31T05:26:35.417Z,13.36
2022-12-31T05:29:02.134Z,13.36
2022-12-31T05:31:28.750Z,13.41
2022-12-31T05:33:55.305Z,13.45
2022-12-31T05:36:21.933Z,13.46
2022-12-31T05:38:48.555Z,13.48
2022-12-31T05:41:15.139Z,13.49
2022-12-31T05:43:41.729Z,13.52
2022-12-31T05:46:08.606Z,13.52
2022-12-31T05:48:35.239Z,13.60
2022-12-31T05:51:01.852Z,13.60
2022-12-31T05:53:28.460Z,13.65
2022-12-31T05:55:55.126Z,13.63
2022-12-31T05:58:21.719Z,13.61
2022-12-31T06:00:48.325Z,13.74
2022-12-31T06:03:15.089Z,13.76
2022-12-31T06:05:43.127Z,13.82
2022-12-31T06:08:11.412Z,13.83
2022-12-31T06:10:39.493Z,13.72
2022-12-31T06:13:06.523Z,13.63
2022-12-31T06:15:39.312Z,13.66
2022-12-31T06:18:06.663Z,13.63
2022-12-31T06:20:33.692Z,13.77
2022-12-31T06:23:00.303Z,13.74
2022-12-31T06:25:27.141Z,13.65
2022-12-31T06:27:53.745Z,13.75
2022-12-31T06:30:20.330Z,13.74
2022-12-31T06:32:47.126Z,13.81
2022-12-31T06:35:14.300Z,13.94
2022-12-31T06:37:40.862Z,13.93
2022-12-31T06:40:08.165Z,13.93
2022-12-31T06:42:34.751Z,13.98
2022-12-31T06:45:01.408Z,13.93
2022-12-31T06:47:28.810Z,13.91
2022-12-31T06:49:55.411Z,13.91
2022-12-31T06:52:22.353Z,13.98
2022-12-31T06:54:49.212Z,14.01
2022-12-31T06:57:16.163Z,13.95
2022-12-31T06:59:44.780Z,13.88
2022-12-31T07:02:29.991Z,13.99
2022-12-31T07:05:15.014Z,14.01
2022-12-31T07:07:54.353Z,13.99
2022-12-31T07:10:29.656Z,13.94
2022-12-31T07:13:11.874Z,13.92
2022-12-31T07:15:53.594Z,13.91
2022-12-31T07:18:42.034Z,13.92
2022-12-31T07:21:33.183Z,13.85
2022-12-31T07:24:00.033Z,13.84
2022-12-31T07:26:56.921Z,13.75
2022-12-31T07:29:32.747Z,13.75
2022-12-31T07:32:23.748Z,13.76
2022-12-31T07:35:05.649Z,13.81
2022-12-31T07:37:42.508Z,13.90
2022-12-31T07:40:29.628Z,13.84
2022-12-31T07:43:10.300Z,13.75
2022-12-31T07:45:47.704Z,13.79
2022-12-31T07:48:23.150Z,13.83
2022-12-31T07:50:51.011Z,13.82
2022-12-31T07:53:17.874Z,13.85
2022-12-31T07:55:44.561Z,13.87
2022-12-31T07:58:38.017Z,13.82
2022-12-31T08:01:08.686Z,13.89
2022-12-31T08:04:07.327Z,13.89
2022-12-31T08:06:56.621Z,13.93
2022-12-31T08:09:36.617Z,13.95
2022-12-31T08:12:03.965Z,13.89
2022-12-31T08:14:30.997Z,13.94
2022-12-31T08:16:57.925Z,13.92
2022-12-31T08:19:25.886Z,13.91
2022-12-31T08:22:06.926Z,13.92
2022-12-31T08:24:50.116Z,13.88
2022-12-31T08:27:32.057Z,13.91
2022-12-31T08:30:02.815Z,13.87
2022-12-31T08:33:08.477Z,13.89
2022-12-31T08:35:35.016Z,13.95
2022-12-31T08:38:07.760Z,13.97
2022-12-31T08:41:05.276Z,14.06
2022-12-31T08:44:05.489Z,14.00
2022-12-31T08:46:47.094Z,13.97
2022-12-31T08:49:14.901Z,14.03
2022-12-31T08:51:42.244Z,14.11
2022-12-31T08:54:11.194Z,14.07
2022-12-31T08:56:48.816Z,14.18
2022-12-31T08:59:46.005Z,14.28
2022-12-31T09:02:24.720Z,14.29
2022-12-31T09:05:28.415Z,14.23
2022-12-31T09:08:10.163Z,14.14
2022-12-31T09:11:13.550Z,14.14
2022-12-31T09:14:04.823Z,14.15
2022-12-31T09:16:59.198Z,14.21
2022-12-31T09:19:25.999Z,14.27
2022-12-31T09:21:52.897Z,14.40
2022-12-31T09:24:19.714Z,14.41
2022-12-31T09:27:27.752Z,14.45
2022-12-31T09:30:04.467Z,14.55
2022-12-31T09:33:00.830Z,14.58
2022-12-31T09:35:58.368Z,14.49
2022-12-31T09:38:31.039Z,14.52
2022-12-31T09:41:24.844Z,14.40
2022-12-31T09:44:21.739Z,14.34
2022-12-31T09:47:13.099Z,14.51
2022-12-31T09:49:54.649Z,14.68
2022-12-31T09:52:47.369Z,14.85
2022-12-31T09:55:30.337Z,14.85
2022-12-31T09:58:06.340Z,14.90
2022-12-31T10:01:11.087Z,14.91
2022-12-31T10:04:33.286Z,14.86
2022-12-31T10:07:05.013Z,14.99
2022-12-31T10:09:49.955Z,15.16
2022-12-31T10:12:25.526Z,15.14
2022-12-31T10:15:19.691Z,15.02
2022-12-31T10:18:26.217Z,15.07
2022-12-31T10:21:26.955Z,14.93
2022-12-31T10:24:24.254Z,14.83
2022-12-31T10:27:32.733Z,14.78
2022-12-31T10:30:13.368Z,14.76
2022-12-31T10:33:01.452Z,14.92
2022-12-31T10:35:36.407Z,14.98
2022-12-31T10:38:32.165Z,14.95
2022-12-31T10:41:23.508Z,14.85
2022-12-31T10:44:20.675Z,14.94
2022-12-31T10:47:25.836Z,14.92
2022-12-31T10:50:07.292Z,15.05
2022-12-31T10:52:58.471Z,14.99
2022-12-31T10:55:51.470Z,15.03
2022-12-31T10:58:45.381Z,15.09
2022-12-31T11:01:30.592Z,15.17
2022-12-31T11:04:19.431Z,15.21
2022-12-31T11:07:25.220Z,15.28
2022-12-31T11:10:09.994Z,15.51
2022-12-31T11:12:57.584Z,15.51
2022-12-31T11:15:51.796Z,15.54
2022-12-31T11:18:31.350Z,15.54
2022-12-31T11:21:06.569Z,15.61
2022-12-31T11:24:11.945Z,15.61
2022-12-31T11:27:10.116Z,15.70
2022-12-31T11:29:55.895Z,15.72
2022-12-31T11:32:37.405Z,15.62
2022-12-31T11:35:22.634Z,15.64
2022-12-31T11:38:02.251Z,15.68
2022-12-31T11:41:13.392Z,15.76
2022-12-31T11:43:56.708Z,15.83
2022-12-31T11:46:58.939Z,15.84
2022-12-31T11:50:04.558Z,15.81
2022-12-31T11:52:49.941Z,15.72
2022-12-31T11:55:38.856Z,15.71
2022-12-31T11:58:16.539Z,15.85
2022-12-31T12:00:56.598Z,15.85
2022-12-31T12:03:24.603Z,15.72
2022-12-31T12:05:51.281Z,16.02
2022-12-31T12:08:17.970Z,16.02
2022-12-31T12:10:47.941Z,16.27
2022-12-31T12:13:21.822Z,16.40
2022-12-31T12:15:51.641Z,16.47
2022-12-31T12:18:42.339Z,16.54
2022-12-31T12:21:19.986Z,16.78
2022-12-31T12:24:20.054Z,17.00
2022-12-31T12:26:46.669Z,16.72
2022-12-31T12:29:15.314Z,16.48
2022-12-31T12:31:42.649Z,16.36
2022-12-31T12:34:25.876Z,16.25
2022-12-31T12:36:53.794Z,16.08
2022-12-31T12:39:23.933Z,16.17
2022-12-31T12:42:04.239Z,16.24
2022-12-31T12:44:31.816Z,16.24
2022-12-31T12:46:59.038Z,16.20
2022-12-31T12:49:54.203Z,16.22
2022-12-31T12:52:32.732Z,16.17
2022-12-31T12:55:24.006Z,16.01
2022-12-31T12:58:05.895Z,15.97
2022-12-31T13:00:59.458Z,15.85
2022-12-31T13:04:23.840Z,15.72
2022-12-31T13:07:16.840Z,15.68
2022-12-31T13:10:02.220Z,15.55
2022-12-31T13:13:22.836Z,15.45
2022-12-31T13:15:56.494Z,15.55
2022-12-31T13:18:47.195Z,15.47
2022-12-31T13:21:28.925Z,15.23
2022-12-31T13:24:07.821Z,15.11
2022-12-31T13:26:55.197Z,15.19
2022-12-31T13:29:27.655Z,15.19
2022-12-31T13:31:56.553Z,15.22
2022-12-31T13:34:31.767Z,15.07
2022-12-31T13:37:05.628Z,15.04
2022-12-31T13:39:39.691Z,15.06
2022-12-31T13:42:18.266Z,15.10
2022-12-31T13:44:44.775Z,14.92
2022-12-31T13:47:17.840Z,14.89
2022-12-31T13:49:50.093Z,14.76
2022-12-31T13:52:21.761Z,14.68
2022-12-31T13:55:09.605Z,14.64
2022-12-31T13:57:38.881Z,14.45
2022-12-31T14:00:15.093Z,14.39
2022-12-31T14:02:48.288Z,14.41
2022-12-31T14:05:24.627Z,14.29
2022-12-31T14:07:54.758Z,14.26
2022-12-31T14:10:42.699Z,14.21
2022-12-31T14:13:42.106Z,14.31
2022-12-31T14:16:24.327Z,14.21
2022-12-31T14:19:01.744Z,14.13
2022-12-31T14:22:03.767Z,14.13
2022-12-31T14:24:49.930Z,14.04
2022-12-31T14:27:20.567Z,14.03
2022-12-31T14:29:53.916Z,14.03
2022-12-31T14:32:43.056Z,13.97
2022-12-31T14:35:32.925Z,13.86
2022-12-31T14:38:05.804Z,13.81
2022-12-31T14:41:09.993Z,13.79
2022-12-31T14:43:55.637Z,13.85
2022-12-31T14:46:52.133Z,13.79
2022-12-31T14:49:58.852Z,13.81
2022-12-31T14:52:35.908Z,13.69
2022-12-31T14:55:22.884Z,13.73
2022-12-31T15:00:39.045Z,13.63
2022-12-31T15:03:23.518Z,13.51
2022-12-31T15:06:07.345Z,13.39
2022-12-31T15:08:33.911Z,13.38
2022-12-31T15:11:32.473Z,13.31
2022-12-31T15:14:22.069Z,13.23
2022-12-31T15:17:03.459Z,13.17
2022-12-31T15:19:54.662Z,13.23
2022-12-31T15:22:37.607Z,13.17
2022-12-31T15:25:27.199Z,13.05
2022-12-31T15:27:55.534Z,13.00
2022-12-31T15:30:46.205Z,12.97
2022-12-31T15:33:25.439Z,12.98
2022-12-31T15:35:55.195Z,12.91
2022-12-31T15:38:34.718Z,12.93
2022-12-31T15:41:32.883Z,13.02
2022-12-31T15:44:15.869Z,12.99
2022-12-31T15:46:44.200Z,13.00
2022-12-31T15:49:19.638Z,13.13
2022-12-31T15:52:13.859Z,13.09
2022-12-31T15:54:48.378Z,13.00
2022-12-31T15:57:33.432Z,13.05
2022-12-31T16:00:05.198Z,13.01
2022-12-31T16:02:33.344Z,13.02
2022-12-31T16:05:01.349Z,13.03
2022-12-31T16:07:29.293Z,12.99
2022-12-31T16:09:59.496Z,13.07
2022-12-31T16:12:33.565Z,13.01
2022-12-31T16:15:02.470Z,13.07
2022-12-31T16:17:31.874Z,13.02
2022-12-31T16:20:00.619Z,12.97
2022-12-31T16:22:36.274Z,12.90
2022-12-31T16:27:54.424Z,12.81
2022-12-31T16:30:28.318Z,12.75
2022-12-31T16:33:01.332Z,12.79
2022-12-31T16:35:33.304Z,12.86
2022-12-31T16:38:24.507Z,12.81
2022-12-31T16:41:03.224Z,12.79
2022-12-31T16:43:40.018Z,12.69
2022-12-31T16:46:26.216Z,12.63
2022-12-31T16:49:00.113Z,12.55
2022-12-31T16:51:33.541Z,12.51
2022-12-31T16:54:02.597Z,12.47
2022-12-31T16:56:37.849Z,12.41
2022-12-31T16:59:34.868Z,12.44
2022-12-31T17:02:12.182Z,12.49
2022-12-31T17:04:45.177Z,12.56
2022-12-31T17:07:39.180Z,12.59
2022-12-31T17:10:09.487Z,12.58
2022-12-31T17:13:17.387Z,12.56
2022-12-31T17:15:40.745Z,12.66
2022-12-31T17:18:11.861Z,12.69
2022-12-31T17:20:39.343Z,12.79
2022-12-31T17:23:09.116Z,12.76
2022-12-31T17:25:39.721Z,12.79
2022-12-31T17:28:24.819Z,12.80
2022-12-31T17:30:52.166Z,12.78
2022-12-31T17:33:21.798Z,12.69
2022-12-31T17:35:54.416Z,12.71
2022-12-31T17:38:21.641Z,12.79
2022-12-31T17:40:56.034Z,12.86
2022-12-31T17:43:25.758Z,12.82
2022-12-31T17:45:55.383Z,12.78
2022-12-31T17:48:25.165Z,12.80
2022-12-31T17:50:57.846Z,12.73
2022-12-31T17:53:25.652Z,12.83
2022-12-31T17:55:59.941Z,12.76
2022-12-31T17:58:37.912Z,12.83
2022-12-31T18:01:07.497Z,12.77
2022-12-31T18:03:35.707Z,12.70
2022-12-31T18:06:03.183Z,12.73
2022-12-31T18:08:30.992Z,12.71
2022-12-31T18:10:59.137Z,12.76
2022-12-31T18:13:29.289Z,12.70
2022-12-31T18:15:57.074Z,12.73
2022-12-31T18:18:27.926Z,12.82
2022-12-31T18:20:59.084Z,12.77
2022-12-31T18:23:42.270Z,12.72
2022-12-31T18:26:14.814Z,12.88
2022-12-31T18:28:42.878Z,12.80
2022-12-31T18:31:17.134Z,12.72
2022-12-31T18:33:45.281Z,12.68
2022-12-31T18:36:14.772Z,12.76
2022-12-31T18:38:42.606Z,12.75
2022-12-31T18:41:20.048Z,12.81
2022-12-31T18:43:48.267Z,12.73
2022-12-31T18:46:24.362Z,12.73
2022-12-31T18:48:52.307Z,12.74
2022-12-31T18:51:29.298Z,12.72
2022-12-31T18:53:59.144Z,12.79
2022-12-31T18:56:27.339Z,12.85
2022-12-31T18:58:55.244Z,12.78
2022-12-31T19:01:35.354Z,12.82
2022-12-31T19:04:27.488Z,12.76
2022-12-31T19:06:56.896Z,12.67
2022-12-31T19:09:44.783Z,12.58
2022-12-31T19:12:15.607Z,12.63
2022-12-31T19:14:43.345Z,12.59
2022-12-31T19:19:37.110Z,12.65
2022-12-31T19:22:04.610Z,12.66
2022-12-31T19:24:32.000Z,12.64
2022-12-31T19:27:01.318Z,12.58
2022-12-31T19:29:28.849Z,12.66
2022-12-31T19:31:58.353Z,12.61
2022-12-31T19:34:25.913Z,12.59
2022-12-31T19:36:53.220Z,12.44
2022-12-31T19:39:21.859Z,12.41
2022-12-31T19:41:58.187Z,12.23
2022-12-31T19:44:26.401Z,12.05
2022-12-31T19:46:54.054Z,11.95
2022-12-31T19:49:21.706Z,11.89
2022-12-31T19:51:49.379Z,11.82
2022-12-31T19:54:16.576Z,11.84
2022-12-31T19:56:44.027Z,11.67
2022-12-31T19:59:12.335Z,11.62
2022-12-31T20:01:39.988Z,11.53
2022-12-31T20:04:07.419Z,11.55
2022-12-31T20:06:34.942Z,11.44
2022-12-31T20:09:03.341Z,11.36
2022-12-31T20:11:31.132Z,11.35
2022-12-31T20:13:59.075Z,11.32
2022-12-31T20:16:32.090Z,11.25
2022-12-31T20:18:59.508Z,11.25
2022-12-31T20:21:29.586Z,11.16
2022-12-31T20:23:57.155Z,11.18
2022-12-31T20:26:25.780Z,11.16
2022-12-31T20:28:53.847Z,11.21
2022-12-31T20:31:24.878Z,11.23
2022-12-31T20:33:54.529Z,11.16
2022-12-31T20:36:22.816Z,11.13
2022-12-31T20:38:50.386Z,11.07
2022-12-31T20:41:22.815Z,11.11
2022-12-31T20:43:50.543Z,11.04
2022-12-31T20:46:23.464Z,11.03
2022-12-31T20:48:52.767Z,11.03
2022-12-31T20:51:21.753Z,10.97
2022-12-31T20:53:57.308Z,10.99
2022-12-31T20:56:26.089Z,10.98
2022-12-31T20:58:53.723Z,11.04
2022-12-31T21:01:22.099Z,10.99
2022-12-31T21:04:06.921Z,10.91
2022-12-31T21:06:35.637Z,10.93
2022-12-31T21:09:05.107Z,10.96
2022-12-31T21:11:51.236Z,10.95
2022-12-31T21:14:19.755Z,10.96
2022-12-31T21:16:48.468Z,10.99
2022-12-31T21:19:15.892Z,11.01
2022-12-31T21:21:43.481Z,10.96
2022-12-31T21:24:11.353Z,10.95
2022-12-31T21:26:38.646Z,11.04
2022-12-31T21:29:05.413Z,11.03
2022-12-31T21:31:32.754Z,11.00
2022-12-31T21:34:01.575Z,11.03
2022-12-31T21:36:29.259Z,11.01
2022-12-31T21:38:56.803Z,10.91
2022-12-31T21:41:42.734Z,10.96
2022-12-31T21:44:10.155Z,10.93
2022-12-31T21:46:37.743Z,10.93
2022-12-31T21:49:05.342Z,10.95
2022-12-31T21:51:32.655Z,10.92
2022-12-31T21:54:00.441Z,10.95
2022-12-31T21:56:27.813Z,10.98
2022-12-31T21:59:17.800Z,11.03
2022-12-31T22:02:03.664Z,11.10
2022-12-31T22:07:18.539Z,11.23
2022-12-31T22:09:45.771Z,11.30
2022-12-31T22:12:13.089Z,11.25
2022-12-31T22:15:15.015Z,11.30
2022-12-31T22:17:28.939Z,11.28
2022-12-31T22:22:42.425Z,11.06
2022-12-31T22:25:09.459Z,11.02
2022-12-31T22:27:36.046Z,10.96
2022-12-31T22:30:02.722Z,10.90
2022-12-31T22:32:29.975Z,10.82
2022-12-31T22:34:57.592Z,10.74
2022-12-31T22:37:55.792Z,10.63
2022-12-31T22:40:12.706Z,10.60
2022-12-31T22:42:41.384Z,10.56
2022-12-31T22:45:11.320Z,10.42
2022-12-31T22:47:39.066Z,10.31
2022-12-31T22:50:09.775Z,10.33
2022-12-31T22:52:37.240Z,10.28
2022-12-31T22:55:06.219Z,10.30
2022-12-31T22:57:33.308Z,10.18
2022-12-31T23:00:00.220Z,10.13
2022-12-31T23:02:27.067Z,10.42
2022-12-31T23:04:53.776Z,10.52
2022-12-31T23:07:40.453Z,10.51
2022-12-31T23:10:26.048Z,10.42
2022-12-31T23:12:52.614Z,10.44
2022-12-31T23:15:37.768Z,10.38
2022-12-31T23:18:22.988Z,10.43
2022-12-31T23:21:09.282Z,10.56
2022-12-31T23:23:35.917Z,10.70
2022-12-31T23:26:03.100Z,10.69
2022-12-31T23:28:31.162Z,10.64
2022-12-31T23:30:58.960Z,10.67
2022-12-31T23:33:27.134Z,10.63
2022-12-31T23:36:07.294Z,10.56
2022-12-31T23:38:34.884Z,10.54
2022-12-31T23:41:14.473Z,10.51
2022-12-31T23:43:41.873Z,10.46
2022-12-31T23:46:09.638Z,10.45
2022-12-31T23:48:37.122Z,10.40
2022-12-31T23:51:05.156Z,10.46
2022-12-31T23:53:32.832Z,10.47
2022-12-31T23:56:13.871Z,10.42
2022-12-31T23:58:47.439Z,10.35
